createdAt,value
2022-12-25T00:00:57.236Z,100.00
2022-12-25T00:03:24.243Z,100.00
2022-12-25T00:05:51.172Z,100.00
2022-12-25T00:08:18.121Z,100.00
2022-12-25T00:10:45.662Z,100.00
2022-12-25T00:13:12.714Z,100.00
2022-12-25T00:15:41.588Z,100.00
2022-12-25T00:18:08.614Z,100.00
2022-12-25T00:20:35.882Z,100.00
2022-12-25T00:23:02.816Z,100.00
2022-12-25T00:25:29.653Z,100.00
2022-12-25T00:27:56.430Z,100.00
2022-12-25T00:30:23.296Z,100.00
2022-12-25T00:32:50.360Z,100.00
2022-12-25T00:35:17.243Z,100.00
2022-12-25T00:37:44.106Z,100.00
2022-12-25T00:40:11.206Z,100.00
2022-12-25T00:42:38.074Z,100.00
2022-12-25T00:45:05.913Z,100.00
2022-12-25T00:47:33.322Z,100.00
2022-12-25T00:50:00.220Z,100.00
2022-12-25T00:52:27.174Z,100.00
2022-12-25T00:54:54.072Z,100.00
2022-12-25T00:57:20.968Z,100.00
2022-12-25T00:59:47.892Z,100.00
2022-12-25T01:02:23.913Z,100.00
2022-12-25T01:04:52.901Z,100.00
2022-12-25T01:07:20.511Z,100.00
2022-12-25T01:10:07.529Z,100.00
2022-12-25T01:12:37.442Z,100.00
2022-12-25T01:15:06.327Z,100.00
2022-12-25T01:17:33.697Z,100.00
2022-12-25T01:20:00.828Z,100.00
2022-12-25T01:22:27.794Z,100.00
2022-12-25T01:24:54.686Z,100.00
2022-12-25T01:27:21.604Z,100.00
2022-12-25T01:29:48.453Z,100.00
2022-12-25T01:32:15.296Z,100.00
2022-12-25T01:34:42.113Z,100.00
2022-12-25T01:37:09.016Z,100.00
2022-12-25T01:39:36.169Z,100.00
2022-12-25T01:42:03.237Z,100.00
2022-12-25T01:44:36.152Z,100.00
2022-12-25T01:47:03.931Z,100.00
2022-12-25T01:49:32.501Z,100.00
2022-12-25T01:52:04.404Z,100.00
2022-12-25T01:54:34.593Z,100.00
2022-12-25T01:57:03.605Z,100.00
2022-12-25T01:59:31.208Z,100.00
2022-12-25T02:02:00.131Z,100.00
2022-12-25T02:04:39.179Z,100.00
2022-12-25T02:07:08.948Z,100.00
2022-12-25T02:09:37.300Z,100.00
2022-12-25T02:12:05.477Z,100.00
2022-12-25T02:14:35.489Z,100.00
2022-12-25T02:17:09.802Z,100.00
2022-12-25T02:19:49.043Z,100.00
2022-12-25T02:22:34.585Z,100.00
2022-12-25T02:25:01.436Z,100.00
2022-12-25T02:27:33.898Z,100.00
2022-12-25T02:30:05.295Z,100.00
2022-12-25T02:32:51.068Z,100.00
2022-12-25T02:35:23.925Z,100.00
2022-12-25T02:37:56.332Z,100.00
2022-12-25T02:40:26.562Z,100.00
2022-12-25T02:43:14.540Z,100.00
2022-12-25T02:46:07.114Z,100.00
2022-12-25T02:48:57.679Z,100.00
2022-12-25T02:51:45.730Z,100.00
2022-12-25T02:54:33.999Z,100.00
2022-12-25T02:57:22.492Z,100.00
2022-12-25T03:00:09.799Z,100.00
2022-12-25T03:02:56.013Z,100.00
2022-12-25T03:05:43.423Z,100.00
2022-12-25T03:08:14.774Z,100.00
2022-12-25T03:11:05.354Z,100.00
2022-12-25T03:13:37.075Z,100.00
2022-12-25T03:16:22.776Z,100.00
2022-12-25T03:18:49.898Z,100.00
2022-12-25T03:21:35.566Z,100.00
2022-12-25T03:24:21.509Z,100.00
2022-12-25T03:26:58.010Z,100.00
2022-12-25T03:29:45.842Z,100.00
2022-12-25T03:32:18.734Z,100.00
2022-12-25T03:35:17.419Z,100.00
2022-12-25T03:38:20.640Z,100.00
2022-12-25T03:41:13.339Z,100.00
2022-12-25T03:44:12.994Z,100.00
2022-12-25T03:47:05.043Z,100.00
2022-12-25T03:49:59.458Z,100.00
2022-12-25T03:52:46.832Z,100.00
2022-12-25T03:55:33.672Z,100.00
2022-12-25T03:58:19.149Z,100.00
2022-12-25T04:01:04.783Z,100.00
2022-12-25T04:03:50.194Z,100.00
2022-12-25T04:06:35.662Z,100.00
2022-12-25T04:09:20.892Z,100.00
2022-12-25T04:12:06.467Z,100.00
2022-12-25T04:14:52.246Z,100.00
2022-12-25T04:17:37.427Z,100.00
2022-12-25T04:20:23.516Z,100.00
2022-12-25T04:23:08.954Z,100.00
2022-12-25T04:25:54.342Z,100.00
2022-12-25T04:28:39.700Z,100.00
2022-12-25T04:31:25.109Z,100.00
2022-12-25T04:34:10.961Z,100.00
2022-12-25T04:36:37.772Z,100.00
2022-12-25T04:39:04.611Z,100.00
2022-12-25T04:41:31.495Z,100.00
2022-12-25T04:43:58.309Z,100.00
2022-12-25T04:46:25.114Z,100.00
2022-12-25T04:48:52.073Z,100.00
2022-12-25T04:51:21.408Z,100.00
2022-12-25T04:53:49.224Z,100.00
2022-12-25T04:56:16.934Z,100.00
2022-12-25T04:58:44.327Z,100.00
2022-12-25T05:01:11.470Z,100.00
2022-12-25T05:03:38.710Z,100.00
2022-12-25T05:06:06.303Z,100.00
2022-12-25T05:08:34.715Z,100.00
2022-12-25T05:11:09.021Z,100.00
2022-12-25T05:13:36.211Z,100.00
2022-12-25T05:16:12.272Z,100.00
2022-12-25T05:18:39.463Z,100.00
2022-12-25T05:21:07.897Z,100.00
2022-12-25T05:23:34.966Z,100.00
2022-12-25T05:26:08.255Z,100.00
2022-12-25T05:28:35.650Z,100.00
2022-12-25T05:31:02.887Z,100.00
2022-12-25T05:33:29.912Z,100.00
2022-12-25T05:35:56.799Z,100.00
2022-12-25T05:38:23.664Z,100.00
2022-12-25T05:40:51.905Z,100.00
2022-12-25T05:43:19.652Z,100.00
2022-12-25T05:45:46.560Z,100.00
2022-12-25T05:48:13.595Z,100.00
2022-12-25T05:50:40.514Z,100.00
2022-12-25T05:53:12.397Z,100.00
2022-12-25T05:55:41.267Z,100.00
2022-12-25T05:58:08.839Z,100.00
2022-12-25T06:00:36.267Z,100.00
2022-12-25T06:03:03.841Z,100.00
2022-12-25T06:05:31.358Z,100.00
2022-12-25T06:07:58.834Z,100.00
2022-12-25T06:10:25.897Z,100.00
2022-12-25T06:12:52.873Z,100.00
2022-12-25T06:15:19.788Z,100.00
2022-12-25T06:17:46.966Z,100.00
2022-12-25T06:20:14.062Z,100.00
2022-12-25T06:22:40.932Z,100.00
2022-12-25T06:25:08.596Z,100.00
2022-12-25T06:27:35.499Z,100.00
2022-12-25T06:30:02.878Z,100.00
2022-12-25T06:32:30.245Z,100.00
2022-12-25T06:34:57.056Z,100.00
2022-12-25T06:37:23.859Z,100.00
2022-12-25T06:39:50.741Z,100.00
2022-12-25T06:42:17.582Z,100.00
2022-12-25T06:44:44.788Z,100.00
2022-12-25T06:47:11.708Z,100.00
2022-12-25T06:49:38.879Z,100.00
2022-12-25T06:52:05.666Z,100.00
2022-12-25T06:54:32.518Z,100.00
2022-12-25T06:56:59.407Z,100.00
2022-12-25T06:59:26.417Z,100.00
2022-12-25T07:01:55.435Z,100.00
2022-12-25T07:04:28.324Z,100.00
2022-12-25T07:06:55.126Z,100.00
2022-12-25T07:09:22.068Z,100.00
2022-12-25T07:11:48.973Z,100.00
2022-12-25T07:14:24.266Z,100.00
2022-12-25T07:16:51.891Z,100.00
2022-12-25T07:19:19.402Z,100.00
2022-12-25T07:21:47.265Z,100.00
2022-12-25T07:24:19.703Z,100.00
2022-12-25T07:26:46.543Z,100.00
2022-12-25T07:29:14.199Z,100.00
2022-12-25T07:31:41.548Z,100.00
2022-12-25T07:34:11.138Z,100.00
2022-12-25T07:36:38.006Z,100.00
2022-12-25T07:39:07.123Z,100.00
2022-12-25T07:41:34.071Z,100.00
2022-12-25T07:44:01.153Z,100.00
2022-12-25T07:46:28.405Z,100.00
2022-12-25T07:48:55.734Z,100.00
2022-12-25T07:51:22.600Z,100.00
2022-12-25T07:53:49.538Z,100.00
2022-12-25T07:56:18.273Z,100.00
2022-12-25T07:58:45.891Z,100.00
2022-12-25T08:01:14.687Z,100.00
2022-12-25T08:03:41.858Z,100.00
2022-12-25T08:06:10.549Z,100.00
2022-12-25T08:08:38.566Z,100.00
2022-12-25T08:11:07.680Z,100.00
2022-12-25T08:13:34.968Z,100.00
2022-12-25T08:16:04.696Z,100.00
2022-12-25T08:18:32.278Z,100.00
2022-12-25T08:21:06.784Z,100.00
2022-12-25T08:23:38.611Z,100.00
2022-12-25T08:26:08.868Z,100.00
2022-12-25T08:28:37.361Z,100.00
2022-12-25T08:31:15.632Z,100.00
2022-12-25T08:33:42.789Z,100.00
2022-12-25T08:36:10.842Z,100.00
2022-12-25T08:38:38.382Z,100.00
2022-12-25T08:41:05.615Z,100.00
2022-12-25T08:43:33.040Z,100.00
2022-12-25T08:46:01.908Z,100.00
2022-12-25T08:48:28.958Z,100.00
2022-12-25T08:50:55.990Z,100.00
2022-12-25T08:53:23.028Z,100.00
2022-12-25T08:55:57.235Z,100.00
2022-12-25T08:58:24.324Z,100.00
2022-12-25T09:00:51.299Z,100.00
2022-12-25T09:03:18.286Z,100.00
2022-12-25T09:05:45.184Z,100.00
2022-12-25T09:08:12.037Z,100.00
2022-12-25T09:10:38.994Z,100.00
2022-12-25T09:13:06.052Z,100.00
2022-12-25T09:15:32.949Z,100.00
2022-12-25T09:17:59.974Z,100.00
2022-12-25T09:20:26.912Z,100.00
2022-12-25T09:22:53.824Z,100.00
2022-12-25T09:25:20.865Z,100.00
2022-12-25T09:27:47.777Z,100.00
2022-12-25T09:30:14.816Z,100.00
2022-12-25T09:32:41.803Z,100.00
2022-12-25T09:35:09.189Z,100.00
2022-12-25T09:37:36.259Z,100.00
2022-12-25T09:40:04.337Z,100.00
2022-12-25T09:42:32.156Z,100.00
2022-12-25T09:45:39.574Z,100.00
2022-12-25T09:48:06.914Z,100.00
2022-12-25T09:50:44.797Z,100.00
2022-12-25T09:53:26.210Z,100.00
2022-12-25T09:56:04.660Z,100.00
2022-12-25T09:58:33.293Z,100.00
2022-12-25T10:01:22.477Z,99.83
2022-12-25T10:04:05.212Z,98.04
2022-12-25T10:06:47.501Z,97.01
2022-12-25T10:09:30.184Z,95.83
2022-12-25T10:12:27.473Z,93.61
2022-12-25T10:15:19.101Z,94.04
2022-12-25T10:17:52.434Z,92.49
2022-12-25T10:20:26.615Z,93.31
2022-12-25T10:22:57.841Z,92.22
2022-12-25T10:25:26.039Z,92.02
2022-12-25T10:27:57.443Z,90.87
2022-12-25T10:30:26.333Z,90.69
2022-12-25T10:32:53.596Z,89.87
2022-12-25T10:35:22.479Z,89.91
2022-12-25T10:37:56.400Z,89.20
2022-12-25T10:40:23.155Z,88.26
2022-12-25T10:42:54.960Z,88.36
2022-12-25T10:45:21.807Z,87.78
2022-12-25T10:47:54.387Z,86.74
2022-12-25T10:50:28.471Z,86.62
2022-12-25T10:53:05.967Z,87.28
2022-12-25T10:55:33.144Z,86.99
2022-12-25T10:58:02.034Z,86.05
2022-12-25T11:00:31.290Z,84.22
2022-12-25T11:02:58.862Z,84.72
2022-12-25T11:05:31.262Z,85.18
2022-12-25T11:08:00.337Z,84.30
2022-12-25T11:10:39.001Z,84.84
2022-12-25T11:13:07.658Z,84.01
2022-12-25T11:15:34.387Z,85.25
2022-12-25T11:18:01.491Z,85.41
2022-12-25T11:20:28.372Z,83.64
2022-12-25T11:22:55.229Z,85.01
2022-12-25T11:25:25.628Z,84.96
2022-12-25T11:28:00.877Z,84.81
2022-12-25T11:30:32.783Z,84.26
2022-12-25T11:33:03.685Z,85.14
2022-12-25T11:35:43.398Z,85.48
2022-12-25T11:38:10.215Z,84.44
2022-12-25T11:40:42.743Z,84.40
2022-12-25T11:43:12.918Z,84.42
2022-12-25T11:45:46.247Z,84.95
2022-12-25T11:48:17.175Z,84.92
2022-12-25T11:50:50.184Z,84.25
2022-12-25T11:53:20.630Z,84.87
2022-12-25T11:55:54.819Z,84.88
2022-12-25T11:58:37.473Z,84.83
2022-12-25T12:01:28.019Z,84.71
2022-12-25T12:03:55.276Z,84.02
2022-12-25T12:06:30.477Z,84.34
2022-12-25T12:09:21.247Z,84.01
2022-12-25T12:11:57.634Z,83.97
2022-12-25T12:14:43.220Z,83.97
2022-12-25T12:17:19.323Z,83.87
2022-12-25T12:19:46.233Z,84.65
2022-12-25T12:22:22.837Z,84.69
2022-12-25T12:25:01.442Z,84.29
2022-12-25T12:27:39.491Z,83.58
2022-12-25T12:30:22.176Z,84.16
2022-12-25T12:32:51.886Z,83.88
2022-12-25T12:35:26.393Z,83.75
2022-12-25T12:38:02.672Z,84.09
2022-12-25T12:40:36.497Z,84.27
2022-12-25T12:43:03.609Z,84.26
2022-12-25T12:45:33.146Z,84.52
2022-12-25T12:48:00.184Z,85.02
2022-12-25T12:50:29.237Z,85.18
2022-12-25T12:52:56.213Z,84.83
2022-12-25T12:55:31.641Z,84.74
2022-12-25T12:58:04.193Z,84.28
2022-12-25T13:00:49.577Z,84.14
2022-12-25T13:03:46.805Z,83.38
2022-12-25T13:06:32.644Z,83.60
2022-12-25T13:09:23.955Z,83.60
2022-12-25T13:11:51.104Z,83.10
2022-12-25T13:14:22.566Z,83.68
2022-12-25T13:16:52.349Z,84.27
2022-12-25T13:19:22.299Z,84.40
2022-12-25T13:21:56.562Z,84.69
2022-12-25T13:24:26.147Z,84.74
2022-12-25T13:26:53.359Z,85.33
2022-12-25T13:29:36.753Z,85.70
2022-12-25T13:32:06.535Z,86.12
2022-12-25T13:34:38.015Z,86.60
2022-12-25T13:37:25.764Z,86.55
2022-12-25T13:39:55.796Z,86.16
2022-12-25T13:42:26.365Z,86.82
2022-12-25T13:45:02.217Z,87.40
2022-12-25T13:47:31.826Z,87.88
2022-12-25T13:50:02.395Z,87.98
2022-12-25T13:52:38.228Z,87.78
2022-12-25T13:55:12.012Z,87.52
2022-12-25T13:57:45.621Z,87.59
2022-12-25T14:00:25.739Z,87.98
2022-12-25T14:02:53.749Z,88.31
2022-12-25T14:05:22.464Z,88.49
2022-12-25T14:07:53.731Z,88.29
2022-12-25T14:10:25.708Z,87.85
2022-12-25T14:12:54.374Z,87.75
2022-12-25T14:15:23.140Z,87.46
2022-12-25T14:17:51.036Z,87.58
2022-12-25T14:20:37.331Z,87.67
2022-12-25T14:23:05.171Z,88.12
2022-12-25T14:25:41.418Z,88.47
2022-12-25T14:28:18.009Z,88.75
2022-12-25T14:30:45.364Z,88.85
2022-12-25T14:33:22.741Z,88.73
2022-12-25T14:35:50.255Z,88.51
2022-12-25T14:38:29.294Z,89.08
2022-12-25T14:41:00.622Z,89.74
2022-12-25T14:43:28.707Z,90.32
2022-12-25T14:45:57.825Z,90.85
2022-12-25T14:48:30.276Z,91.20
2022-12-25T14:51:17.776Z,91.40
2022-12-25T14:53:53.672Z,91.55
2022-12-25T14:56:21.817Z,91.60
2022-12-25T14:58:55.378Z,91.70
2022-12-25T15:01:35.126Z,91.72
2022-12-25T15:04:12.207Z,91.80
2022-12-25T15:06:41.351Z,91.78
2022-12-25T15:09:16.569Z,91.75
2022-12-25T15:11:43.532Z,91.90
2022-12-25T15:14:10.390Z,91.98
2022-12-25T15:16:42.107Z,92.29
2022-12-25T15:19:34.809Z,92.50
2022-12-25T15:22:04.097Z,92.77
2022-12-25T15:24:31.780Z,92.81
2022-12-25T15:27:00.349Z,92.85
2022-12-25T15:30:07.411Z,92.84
2022-12-25T15:32:20.442Z,93.00
2022-12-25T15:34:49.741Z,93.10
2022-12-25T15:37:17.849Z,93.31
2022-12-25T15:39:45.787Z,93.68
2022-12-25T15:42:21.754Z,93.65
2022-12-25T15:44:48.571Z,93.84
2022-12-25T15:47:17.182Z,94.04
2022-12-25T15:49:44.141Z,94.31
2022-12-25T15:52:14.065Z,94.53
2022-12-25T15:54:41.128Z,94.56
2022-12-25T15:57:18.121Z,94.72
2022-12-25T15:59:45.359Z,94.84
2022-12-25T16:02:17.676Z,95.01
2022-12-25T16:04:44.873Z,94.94
2022-12-25T16:07:23.521Z,94.94
2022-12-25T16:09:50.741Z,95.10
2022-12-25T16:12:18.509Z,95.10
2022-12-25T16:14:45.310Z,95.31
2022-12-25T16:17:14.872Z,95.48
2022-12-25T16:19:44.608Z,95.55
2022-12-25T16:22:13.888Z,95.60
2022-12-25T16:24:40.764Z,95.66
2022-12-25T16:27:07.662Z,95.93
2022-12-25T16:29:34.627Z,96.18
2022-12-25T16:32:01.529Z,96.77
2022-12-25T16:34:28.636Z,97.02
2022-12-25T16:36:56.386Z,97.60
2022-12-25T16:39:23.372Z,97.71
2022-12-25T16:41:52.765Z,97.88
2022-12-25T16:44:19.679Z,98.20
2022-12-25T16:46:46.610Z,98.88
2022-12-25T16:49:13.933Z,99.26
2022-12-25T16:51:40.982Z,99.21
2022-12-25T16:54:08.715Z,99.34
2022-12-25T16:56:36.759Z,99.10
2022-12-25T16:59:03.864Z,99.12
2022-12-25T17:01:31.321Z,99.20
2022-12-25T17:04:01.545Z,99.39
2022-12-25T17:06:28.698Z,99.56
2022-12-25T17:08:57.840Z,99.66
2022-12-25T17:11:29.590Z,99.96
2022-12-25T17:13:57.381Z,100.00
2022-12-25T17:16:26.522Z,100.00
2022-12-25T17:18:58.546Z,100.00
2022-12-25T17:21:26.519Z,100.00
2022-12-25T17:23:59.684Z,100.00
2022-12-25T17:26:29.126Z,100.00
2022-12-25T17:28:56.407Z,100.00
2022-12-25T17:31:23.454Z,100.00
2022-12-25T17:33:50.296Z,100.00
2022-12-25T17:36:19.357Z,100.00
2022-12-25T17:38:47.601Z,100.00
2022-12-25T17:41:16.434Z,100.00
2022-12-25T17:43:45.635Z,100.00
2022-12-25T17:46:17.965Z,100.00
2022-12-25T17:48:45.570Z,100.00
2022-12-25T17:51:14.645Z,100.00
2022-12-25T17:53:43.483Z,100.00
2022-12-25T17:56:11.038Z,100.00
2022-12-25T17:58:38.592Z,100.00
2022-12-25T18:01:11.073Z,100.00
2022-12-25T18:03:38.380Z,100.00
2022-12-25T18:06:12.142Z,100.00
2022-12-25T18:08:40.168Z,100.00
2022-12-25T18:11:09.795Z,100.00
2022-12-25T18:13:37.456Z,100.00
2022-12-25T18:16:06.280Z,100.00
2022-12-25T18:18:33.836Z,100.00
2022-12-25T18:21:01.866Z,100.00
2022-12-25T18:23:28.817Z,100.00
2022-12-25T18:25:55.790Z,100.00
2022-12-25T18:28:22.691Z,100.00
2022-12-25T18:30:49.735Z,100.00
2022-12-25T18:33:17.166Z,100.00
2022-12-25T18:35:47.133Z,100.00
2022-12-25T18:38:14.601Z,100.00
2022-12-25T18:40:46.498Z,100.00
2022-12-25T18:43:14.459Z,100.00
2022-12-25T18:45:42.635Z,100.00
2022-12-25T18:48:10.682Z,100.00
2022-12-25T18:50:39.397Z,100.00
2022-12-25T18:53:07.100Z,100.00
2022-12-25T18:55:33.984Z,100.00
2022-12-25T18:58:02.377Z,100.00
2022-12-25T19:00:29.323Z,100.00
2022-12-25T19:02:58.620Z,100.00
2022-12-25T19:05:27.610Z,100.00
2022-12-25T19:07:58.559Z,100.00
2022-12-25T19:10:25.511Z,100.00
2022-12-25T19:12:52.868Z,100.00
2022-12-25T19:15:19.715Z,100.00
2022-12-25T19:17:46.675Z,100.00
2022-12-25T19:20:13.568Z,100.00
2022-12-25T19:22:40.492Z,100.00
2022-12-25T19:25:08.016Z,100.00
2022-12-25T19:27:35.210Z,100.00
2022-12-25T19:30:02.307Z,100.00
2022-12-25T19:32:30.998Z,100.00
2022-12-25T19:34:57.841Z,100.00
2022-12-25T19:37:24.781Z,100.00
2022-12-25T19:39:51.739Z,100.00
2022-12-25T19:42:18.996Z,100.00
2022-12-25T19:44:46.147Z,100.00
2022-12-25T19:47:13.016Z,100.00
2022-12-25T19:49:40.846Z,100.00
2022-12-25T19:52:07.836Z,100.00
2022-12-25T19:54:34.631Z,100.00
2022-12-25T19:57:01.579Z,100.00
2022-12-25T19:59:28.466Z,100.00
2022-12-25T20:01:55.615Z,100.00
2022-12-25T20:04:22.585Z,100.00
2022-12-25T20:06:49.511Z,100.00
2022-12-25T20:09:21.239Z,100.00
2022-12-25T20:11:48.631Z,100.00
2022-12-25T20:14:16.398Z,100.00
2022-12-25T20:16:44.278Z,100.00
2022-12-25T20:19:14.888Z,100.00
2022-12-25T20:21:41.976Z,100.00
2022-12-25T20:24:10.945Z,100.00
2022-12-25T20:26:38.679Z,100.00
2022-12-25T20:29:06.658Z,100.00
2022-12-25T20:31:35.033Z,100.00
2022-12-25T20:34:10.267Z,100.00
2022-12-25T20:36:38.246Z,100.00
2022-12-25T20:39:08.584Z,100.00
2022-12-25T20:41:35.926Z,100.00
2022-12-25T20:44:04.334Z,100.00
2022-12-25T20:46:31.393Z,100.00
2022-12-25T20:49:01.092Z,100.00
2022-12-25T20:51:28.053Z,100.00
2022-12-25T20:53:57.882Z,100.00
2022-12-25T20:56:26.170Z,100.00
2022-12-25T20:58:55.013Z,100.00
2022-12-25T21:01:22.282Z,100.00
2022-12-25T21:03:49.390Z,100.00
2022-12-25T21:06:16.321Z,100.00
2022-12-25T21:08:43.295Z,100.00
2022-12-25T21:11:11.169Z,100.00
2022-12-25T21:13:40.600Z,100.00
2022-12-25T21:16:14.092Z,100.00
2022-12-25T21:18:41.325Z,100.00
2022-12-25T21:21:08.779Z,100.00
2022-12-25T21:23:36.829Z,100.00
2022-12-25T21:26:31.854Z,100.00
2022-12-25T21:29:00.575Z,100.00
2022-12-25T21:31:28.372Z,100.00
2022-12-25T21:33:57.452Z,100.00
2022-12-25T21:36:30.056Z,100.00
2022-12-25T21:38:57.038Z,100.00
2022-12-25T21:41:24.501Z,100.00
2022-12-25T21:43:51.864Z,100.00
2022-12-25T21:46:19.556Z,100.00
2022-12-25T21:48:46.686Z,100.00
2022-12-25T21:51:39.835Z,100.00
2022-12-25T21:54:07.417Z,100.00
2022-12-25T21:56:43.024Z,100.00
2022-12-25T21:59:16.906Z,100.00
2022-12-25T22:01:43.932Z,100.00
2022-12-25T22:04:12.839Z,100.00
2022-12-25T22:06:58.593Z,100.00
2022-12-25T22:09:25.737Z,100.00
2022-12-25T22:12:11.458Z,100.00
2022-12-25T22:14:54.326Z,100.00
2022-12-25T22:17:45.817Z,100.00
2022-12-25T22:20:18.400Z,100.00
2022-12-25T22:22:45.347Z,100.00
2022-12-25T22:25:12.854Z,100.00
2022-12-25T22:27:40.886Z,100.00
2022-12-25T22:30:16.427Z,100.00
2022-12-25T22:32:43.328Z,100.00
2022-12-25T22:35:12.482Z,100.00
2022-12-25T22:37:40.744Z,100.00
2022-12-25T22:40:09.938Z,100.00
2022-12-25T22:42:36.881Z,100.00
2022-12-25T22:45:05.448Z,100.00
2022-12-25T22:47:32.704Z,100.00
2022-12-25T22:49:59.539Z,100.00
2022-12-25T22:52:26.546Z,100.00
2022-12-25T22:54:53.457Z,100.00
2022-12-25T22:57:20.296Z,100.00
2022-12-25T22:59:47.171Z,100.00
2022-12-25T23:02:14.257Z,100.00
2022-12-25T23:04:41.369Z,100.00
2022-12-25T23:07:08.795Z,100.00
2022-12-25T23:09:35.706Z,100.00
2022-12-25T23:12:02.576Z,100.00
2022-12-25T23:14:43.990Z,100.00
2022-12-25T23:17:32.024Z,100.00
2022-12-25T23:20:18.833Z,100.00
2022-12-25T23:23:04.749Z,100.00
2022-12-25T23:25:50.412Z,100.00
2022-12-25T23:28:40.062Z,100.00
2022-12-25T23:31:07.661Z,100.00
2022-12-25T23:33:34.544Z,100.00
2022-12-25T23:36:01.392Z,100.00
2022-12-25T23:38:28.185Z,100.00
2022-12-25T23:40:55.035Z,100.00
2022-12-25T23:43:22.139Z,100.00
2022-12-25T23:45:48.986Z,100.00
2022-12-25T23:48:15.912Z,100.00
2022-12-25T23:50:42.762Z,100.00
2022-12-25T23:53:10.914Z,100.00
2022-12-25T23:55:38.003Z,100.00
2022-12-25T23:58:05.186Z,100.00
